createdAt,value
2022-09-30T00:01:15.968Z,11.13
2022-09-30T00:03:43.711Z,11.55
2022-09-30T00:06:11.437Z,13.63
2022-09-30T00:08:38.591Z,11.85
2022-09-30T00:11:11.303Z,12.25
2022-09-30T00:13:40.202Z,16.38
2022-09-30T00:16:09.235Z,14.00
2022-09-30T00:18:37.179Z,13.13
2022-09-30T00:21:05.174Z,14.07
2022-09-30T00:23:32.135Z,12.70
2022-09-30T00:26:01.477Z,13.85
2022-09-30T00:28:29.610Z,12.82
2022-09-30T00:31:05.578Z,17.98
2022-09-30T00:33:32.936Z,13.93
2022-09-30T00:36:00.771Z,12.85
2022-09-30T00:38:28.178Z,15.05
2022-09-30T00:40:56.394Z,13.40
2022-09-30T00:43:43.448Z,13.77
2022-09-30T00:46:44.863Z,14.88
2022-09-30T00:49:24.984Z,13.25
2022-09-30T00:51:57.712Z,13.70
2022-09-30T00:54:29.802Z,15.82
2022-09-30T00:57:01.066Z,14.05
2022-09-30T00:59:34.977Z,15.13
2022-09-30T01:02:02.372Z,14.10
2022-09-30T01:04:31.476Z,13.48
2022-09-30T01:07:07.034Z,16.23
2022-09-30T01:09:40.581Z,14.68
2022-09-30T01:12:14.521Z,14.68
2022-09-30T01:14:42.546Z,13.43
2022-09-30T01:17:22.390Z,14.30
2022-09-30T01:20:27.150Z,12.20
2022-09-30T01:23:27.250Z,13.27
2022-09-30T01:26:23.182Z,10.82
2022-09-30T01:28:56.039Z,12.25
2022-09-30T01:31:32.274Z,12.20
2022-09-30T01:37:03.366Z,17.63
2022-09-30T01:39:46.971Z,25.88
2022-09-30T01:42:35.014Z,126.70
2022-09-30T01:45:08.592Z,108.35
2022-09-30T01:47:50.322Z,82.68
2022-09-30T01:50:53.311Z,31.00
2022-09-30T01:53:47.379Z,71.57
2022-09-30T01:56:17.970Z,28.52
2022-09-30T01:59:08.831Z,47.97
2022-09-30T02:01:44.161Z,31.50
2022-09-30T02:04:21.345Z,27.97
2022-09-30T02:06:53.712Z,78.93
2022-09-30T02:09:39.169Z,36.65
2022-09-30T02:12:13.171Z,84.95
2022-09-30T02:14:52.703Z,70.50
2022-09-30T02:17:43.290Z,106.80
2022-09-30T02:20:33.197Z,44.58
2022-09-30T02:23:10.176Z,77.15
2022-09-30T02:25:42.900Z,87.53
2022-09-30T02:28:14.365Z,101.07
2022-09-30T02:30:47.700Z,32.67
2022-09-30T02:33:23.384Z,71.90
2022-09-30T02:35:59.284Z,96.05
2022-09-30T02:38:31.672Z,18.25
2022-09-30T02:41:06.281Z,43.65
2022-09-30T02:43:34.260Z,34.42
2022-09-30T02:46:07.255Z,40.67
2022-09-30T02:48:46.752Z,34.10
2022-09-30T02:51:39.804Z,88.70
2022-09-30T02:54:25.638Z,43.47
2022-09-30T02:57:02.437Z,37.08
2022-09-30T02:59:29.326Z,38.17
2022-09-30T03:01:56.396Z,49.95
2022-09-30T03:04:27.170Z,31.20
2022-09-30T03:06:55.229Z,54.75
2022-09-30T03:09:28.838Z,30.70
2022-09-30T03:12:08.406Z,36.30
2022-09-30T03:14:50.914Z,24.45
2022-09-30T03:17:36.286Z,24.85
2022-09-30T03:20:29.108Z,27.02
2022-09-30T03:22:59.089Z,22.05
2022-09-30T03:25:43.889Z,26.30
2022-09-30T03:28:35.440Z,17.35
2022-09-30T03:31:49.563Z,17.52
2022-09-30T03:34:33.254Z,18.77
2022-09-30T03:37:17.181Z,19.95
2022-09-30T03:40:04.250Z,18.98
2022-09-30T03:42:40.986Z,15.65
2022-09-30T03:45:28.284Z,18.50
2022-09-30T03:48:01.447Z,14.75
2022-09-30T03:50:29.343Z,17.77
2022-09-30T03:52:56.358Z,16.58
2022-09-30T03:55:25.482Z,14.73
2022-09-30T03:57:52.619Z,19.38
2022-09-30T04:00:19.511Z,13.93
2022-09-30T04:02:46.436Z,18.13
2022-09-30T04:05:13.438Z,16.08
2022-09-30T04:07:40.555Z,15.95
2022-09-30T04:10:07.780Z,14.10
2022-09-30T04:12:34.695Z,13.75
2022-09-30T04:15:01.633Z,14.55
2022-09-30T04:17:28.674Z,14.70
2022-09-30T04:19:55.568Z,13.70
2022-09-30T04:22:26.286Z,15.23
2022-09-30T04:24:53.551Z,16.95
2022-09-30T04:27:20.684Z,16.52
2022-09-30T04:29:47.723Z,19.35
2022-09-30T04:32:14.642Z,16.17
2022-09-30T04:34:41.943Z,17.08
2022-09-30T04:37:11.018Z,16.52
2022-09-30T04:39:38.663Z,19.75
2022-09-30T04:42:16.123Z,19.42
2022-09-30T04:47:56.236Z,17.17
2022-09-30T04:50:24.056Z,18.33
2022-09-30T04:52:53.788Z,17.20
2022-09-30T04:55:23.170Z,19.20
2022-09-30T04:58:02.903Z,17.15
2022-09-30T05:01:16.221Z,18.08
2022-09-30T05:16:43.384Z,15.63
2022-09-30T05:20:20.266Z,14.60
2022-09-30T05:23:43.174Z,16.27
2022-09-30T05:35:20.056Z,14.05
2022-09-30T05:38:26.964Z,13.98
2022-09-30T05:42:01.144Z,14.17
2022-09-30T05:48:32.786Z,14.00
2022-09-30T05:56:17.508Z,13.20
2022-09-30T05:59:32.450Z,13.95
2022-09-30T06:11:07.026Z,11.15
2022-09-30T06:13:03.510Z,10.85
2022-09-30T06:24:10.571Z,9.90
2022-09-30T06:37:19.840Z,11.50
2022-09-30T06:44:52.342Z,9.50
2022-09-30T07:21:36.055Z,4.50
2022-09-30T07:33:58.324Z,4.20
2022-09-30T07:39:36.224Z,5.80
2022-09-30T07:42:08.732Z,8.63
2022-09-30T07:44:40.405Z,4.18
2022-09-30T07:47:24.961Z,3.42
2022-09-30T07:57:10.485Z,4.90
2022-09-30T08:04:03.466Z,4.22
2022-09-30T08:10:27.289Z,3.75
2022-09-30T08:12:58.022Z,5.45
2022-09-30T08:18:53.146Z,5.13
2022-09-30T08:21:29.065Z,4.60
2022-09-30T08:27:37.349Z,4.03
2022-09-30T08:30:26.193Z,3.55
2022-09-30T08:33:06.755Z,6.05
2022-09-30T08:35:40.337Z,3.88
2022-09-30T08:38:10.587Z,2.50
2022-09-30T08:41:05.787Z,3.83
2022-09-30T08:44:07.892Z,6.47
2022-09-30T08:50:39.251Z,5.32
2022-09-30T08:53:27.282Z,2.88
2022-09-30T08:55:58.060Z,3.83
2022-09-30T09:02:17.383Z,3.22
2022-09-30T09:04:48.768Z,2.92
2022-09-30T09:07:26.969Z,3.63
2022-09-30T09:10:19.225Z,2.55
2022-09-30T09:13:11.597Z,2.38
2022-09-30T09:16:06.842Z,2.63
2022-09-30T09:19:00.240Z,4.25
2022-09-30T09:21:52.037Z,1.70
2022-09-30T09:24:27.690Z,1.95
2022-09-30T09:27:02.052Z,2.10
2022-09-30T09:30:06.735Z,4.35
2022-09-30T09:32:37.035Z,4.00
2022-09-30T09:35:32.134Z,3.65
2022-09-30T09:38:28.660Z,2.05
2022-09-30T09:41:15.489Z,2.30
2022-09-30T09:47:53.763Z,1.73
2022-09-30T09:54:06.527Z,2.55
2022-09-30T09:56:36.214Z,1.10
2022-09-30T09:59:22.201Z,2.00
2022-09-30T10:01:54.528Z,2.38
2022-09-30T10:04:47.027Z,2.33
2022-09-30T10:07:27.661Z,2.30
2022-09-30T10:10:28.052Z,2.75
2022-09-30T10:13:16.073Z,2.00
2022-09-30T10:19:26.384Z,1.58
2022-09-30T10:22:43.389Z,2.05
2022-09-30T10:25:45.381Z,2.13
2022-09-30T10:28:26.590Z,1.50
2022-09-30T10:31:14.849Z,4.88
2022-09-30T10:33:59.553Z,1.60
2022-09-30T10:37:32.679Z,0.85
2022-09-30T10:40:11.815Z,1.17
2022-09-30T10:42:42.288Z,1.33
2022-09-30T10:45:26.628Z,2.92
2022-09-30T10:47:56.366Z,1.75
2022-09-30T10:50:32.914Z,1.17
2022-09-30T10:53:15.933Z,0.98
2022-09-30T10:55:51.140Z,1.83
2022-09-30T10:58:30.488Z,0.90
2022-09-30T11:01:25.143Z,2.45
2022-09-30T11:03:55.415Z,1.30
2022-09-30T11:06:26.688Z,1.23
2022-09-30T11:09:24.721Z,1.05
2022-09-30T11:11:58.086Z,1.55
2022-09-30T11:14:40.739Z,1.23
2022-09-30T11:17:40.263Z,5.35
2022-09-30T11:20:28.628Z,2.45
2022-09-30T11:23:22.121Z,1.45
2022-09-30T11:26:09.938Z,1.27
2022-09-30T11:28:40.554Z,1.67
2022-09-30T11:31:13.320Z,2.85
2022-09-30T11:34:00.467Z,2.38
2022-09-30T11:36:35.286Z,4.43
2022-09-30T11:39:24.854Z,3.53
2022-09-30T11:42:22.941Z,3.95
2022-09-30T11:45:10.188Z,1.30
2022-09-30T11:48:09.085Z,1.52
2022-09-30T11:51:09.829Z,1.58
2022-09-30T11:53:53.311Z,3.17
2022-09-30T11:56:40.278Z,3.50
2022-09-30T11:59:23.326Z,3.50
2022-09-30T12:01:54.818Z,2.08
2022-09-30T12:04:44.198Z,2.30
2022-09-30T12:07:21.721Z,4.70
2022-09-30T12:09:58.476Z,4.13
2022-09-30T12:12:26.630Z,2.65
2022-09-30T12:15:08.544Z,2.45
2022-09-30T12:17:57.070Z,3.97
2022-09-30T12:20:40.451Z,6.10
2022-09-30T12:23:25.832Z,6.28
2022-09-30T12:25:56.740Z,8.10
2022-09-30T12:29:03.438Z,6.10
2022-09-30T12:32:02.095Z,5.25
2022-09-30T12:34:53.670Z,3.35
2022-09-30T12:37:30.387Z,3.85
2022-09-30T12:40:25.515Z,2.50
2022-09-30T12:43:25.657Z,5.32
2022-09-30T12:46:25.638Z,2.28
2022-09-30T12:49:04.015Z,1.38
2022-09-30T12:51:34.609Z,2.33
2022-09-30T12:54:20.422Z,2.63
2022-09-30T12:56:54.623Z,3.30
2022-09-30T12:59:39.815Z,2.83
2022-09-30T13:02:19.046Z,1.60
2022-09-30T13:04:46.140Z,1.30
2022-09-30T13:07:18.495Z,2.95
2022-09-30T13:10:02.866Z,3.08
2022-09-30T13:12:46.121Z,1.50
2022-09-30T13:15:43.787Z,0.90
2022-09-30T13:18:34.068Z,2.00
2022-09-30T13:21:11.164Z,2.03
2022-09-30T13:23:52.672Z,1.23
2022-09-30T13:26:38.416Z,4.57
2022-09-30T13:29:15.136Z,1.83
2022-09-30T13:31:52.228Z,1.42
2022-09-30T13:34:31.245Z,2.05
2022-09-30T13:37:01.525Z,1.48
2022-09-30T13:39:31.954Z,1.60
2022-09-30T13:42:09.509Z,2.78
2022-09-30T13:44:44.974Z,2.15
2022-09-30T13:47:22.403Z,2.05
2022-09-30T13:50:00.401Z,3.85
2022-09-30T13:52:34.251Z,2.28
2022-09-30T13:55:24.698Z,2.22
2022-09-30T13:58:08.731Z,1.50
2022-09-30T14:00:56.440Z,1.58
2022-09-30T14:03:37.864Z,4.32
2022-09-30T14:06:11.051Z,2.25
2022-09-30T14:09:09.783Z,3.63
2022-09-30T14:11:54.135Z,2.25
2022-09-30T14:14:42.930Z,2.72
2022-09-30T14:17:16.173Z,2.33
2022-09-30T14:20:23.028Z,2.58
2022-09-30T14:22:52.064Z,2.70
2022-09-30T14:25:25.197Z,1.83
2022-09-30T14:28:13.419Z,6.50
2022-09-30T14:30:45.238Z,5.88
2022-09-30T14:33:26.439Z,4.32
2022-09-30T14:35:54.882Z,3.80
2022-09-30T14:38:28.673Z,2.10
2022-09-30T14:40:58.973Z,1.80
2022-09-30T14:43:39.061Z,3.33
2022-09-30T14:46:25.460Z,2.17
2022-09-30T14:48:54.636Z,3.88
2022-09-30T14:51:23.957Z,3.17
2022-09-30T14:53:57.512Z,8.45
2022-09-30T14:56:32.359Z,2.22
2022-09-30T14:59:01.414Z,5.03
2022-09-30T15:01:34.096Z,4.72
2022-09-30T15:04:14.555Z,3.00
2022-09-30T15:06:46.876Z,4.18
2022-09-30T15:09:43.871Z,2.85
2022-09-30T15:12:14.841Z,7.80
2022-09-30T15:14:59.543Z,5.20
2022-09-30T15:17:29.877Z,4.65
2022-09-30T15:19:58.968Z,5.43
2022-09-30T15:22:31.012Z,7.20
2022-09-30T15:24:59.974Z,8.88
2022-09-30T15:27:31.610Z,4.47
2022-09-30T15:30:18.712Z,5.38
2022-09-30T15:32:50.280Z,8.65
2022-09-30T15:35:25.298Z,4.20
2022-09-30T15:37:54.163Z,6.53
2022-09-30T15:40:42.841Z,5.40
2022-09-30T15:43:16.435Z,4.50
2022-09-30T15:45:45.502Z,4.65
2022-09-30T15:48:28.111Z,4.30
2022-09-30T15:50:59.609Z,4.47
2022-09-30T15:53:31.636Z,5.78
2022-09-30T15:56:00.607Z,8.40
2022-09-30T15:58:33.583Z,9.55
2022-09-30T16:01:14.786Z,5.15
2022-09-30T16:03:57.152Z,5.03
2022-09-30T16:06:30.181Z,9.63
2022-09-30T16:09:06.949Z,8.50
2022-09-30T16:11:44.797Z,5.15
2022-09-30T16:14:26.973Z,6.95
2022-09-30T16:16:58.649Z,7.55
2022-09-30T16:19:27.209Z,6.72
2022-09-30T16:21:56.152Z,8.02
2022-09-30T16:24:29.138Z,9.43
2022-09-30T16:26:58.671Z,6.93
2022-09-30T16:29:32.946Z,7.97
2022-09-30T16:32:00.217Z,10.70
2022-09-30T16:34:29.719Z,14.15
2022-09-30T16:37:11.122Z,11.60
2022-09-30T16:39:38.331Z,9.38
2022-09-30T16:42:05.258Z,8.00
2022-09-30T16:44:35.865Z,9.90
2022-09-30T16:47:03.326Z,10.27
2022-09-30T16:49:30.195Z,12.02
2022-09-30T16:51:57.296Z,12.75
2022-09-30T16:54:24.791Z,10.00
2022-09-30T16:56:53.017Z,9.70
2022-09-30T16:59:20.310Z,14.85
2022-09-30T17:01:47.597Z,10.63
2022-09-30T17:04:16.638Z,10.25
2022-09-30T17:06:45.056Z,11.90
2022-09-30T17:09:12.503Z,10.90
2022-09-30T17:11:40.496Z,9.10
2022-09-30T17:14:07.528Z,15.38
2022-09-30T17:16:36.763Z,12.35
2022-09-30T17:19:05.260Z,11.07
2022-09-30T17:21:33.033Z,12.48
2022-09-30T17:24:00.434Z,11.63
2022-09-30T17:26:28.450Z,18.33
2022-09-30T17:29:08.733Z,18.88
2022-09-30T17:31:42.195Z,14.57
2022-09-30T17:34:10.584Z,19.08
2022-09-30T17:36:38.454Z,16.52
2022-09-30T17:39:08.113Z,17.13
2022-09-30T17:41:54.125Z,11.52
2022-09-30T17:44:21.766Z,10.40
2022-09-30T17:46:49.870Z,16.25
2022-09-30T17:49:21.903Z,18.75
2022-09-30T17:51:51.135Z,20.23
2022-09-30T17:54:18.382Z,20.10
2022-09-30T17:56:45.984Z,20.67
2022-09-30T17:59:14.229Z,16.15
2022-09-30T18:01:42.173Z,20.10
2022-09-30T18:04:09.510Z,20.00
2022-09-30T18:06:37.392Z,17.80
2022-09-30T18:09:04.379Z,20.70
2022-09-30T18:11:32.349Z,20.90
2022-09-30T18:14:00.546Z,23.40
2022-09-30T18:16:31.013Z,26.27
2022-09-30T18:19:05.046Z,31.27
2022-09-30T18:21:33.953Z,27.38
2022-09-30T18:24:02.154Z,22.52
2022-09-30T18:26:33.459Z,29.13
2022-09-30T18:29:03.172Z,23.50
2022-09-30T18:31:37.765Z,33.28
2022-09-30T18:34:07.050Z,34.22
2022-09-30T18:36:35.932Z,34.17
2022-09-30T18:39:04.305Z,33.90
2022-09-30T18:41:35.344Z,31.73
2022-09-30T18:44:03.342Z,24.73
2022-09-30T18:46:33.953Z,34.05
2022-09-30T18:49:01.820Z,40.75
2022-09-30T18:51:30.637Z,30.27
2022-09-30T18:54:00.344Z,21.77
2022-09-30T18:56:32.244Z,20.52
2022-09-30T18:59:04.902Z,22.77
2022-09-30T19:01:34.217Z,21.13
2022-09-30T19:04:04.995Z,24.58
2022-09-30T19:06:32.741Z,20.42
2022-09-30T19:08:59.729Z,25.38
2022-09-30T19:11:30.392Z,25.90
2022-09-30T19:13:59.413Z,26.50
2022-09-30T19:16:26.911Z,35.75
2022-09-30T19:18:55.397Z,38.90
2022-09-30T19:21:23.031Z,42.67
2022-09-30T19:23:50.692Z,41.05
2022-09-30T19:26:18.074Z,43.20
2022-09-30T19:28:45.796Z,39.67
2022-09-30T19:31:17.342Z,43.85
2022-09-30T19:33:55.357Z,34.58
2022-09-30T19:36:24.529Z,38.17
2022-09-30T19:38:58.271Z,31.98
2022-09-30T19:41:32.353Z,36.47
2022-09-30T19:44:02.783Z,34.38
2022-09-30T19:46:30.415Z,32.65
2022-09-30T19:48:57.865Z,27.85
2022-09-30T19:51:25.545Z,30.00
2022-09-30T19:54:05.442Z,30.73
2022-09-30T19:56:34.695Z,31.75
2022-09-30T19:59:01.850Z,31.30
2022-09-30T20:01:30.954Z,37.72
2022-09-30T20:04:05.288Z,30.92
2022-09-30T20:06:34.537Z,33.22
2022-09-30T20:09:05.005Z,27.67
2022-09-30T20:11:34.227Z,29.05
2022-09-30T20:14:22.400Z,32.08
2022-09-30T20:16:49.902Z,28.33
2022-09-30T20:19:18.367Z,27.88
2022-09-30T20:21:46.703Z,27.55
2022-09-30T20:24:15.706Z,23.83
2022-09-30T20:26:44.053Z,31.38
2022-09-30T20:29:11.887Z,33.13
2022-09-30T20:31:41.777Z,32.05
2022-09-30T20:34:12.236Z,39.85
2022-09-30T20:36:40.726Z,35.20
2022-09-30T20:39:08.571Z,32.70
2022-09-30T20:41:37.590Z,29.50
2022-09-30T20:44:07.165Z,32.10
2022-09-30T20:46:35.058Z,28.98
2022-09-30T20:49:03.516Z,35.10
2022-09-30T20:51:31.713Z,26.77
2022-09-30T20:54:00.475Z,24.27
2022-09-30T20:56:39.344Z,30.55
2022-09-30T20:59:17.890Z,27.35
2022-09-30T21:01:44.954Z,24.17
2022-09-30T21:04:12.006Z,26.65
2022-09-30T21:06:39.554Z,31.85
2022-09-30T21:09:06.867Z,33.28
2022-09-30T21:11:34.436Z,30.83
2022-09-30T21:14:01.951Z,32.80
2022-09-30T21:16:29.886Z,32.72
2022-09-30T21:18:56.966Z,28.77
2022-09-30T21:21:25.858Z,22.55
2022-09-30T21:23:57.714Z,22.65
2022-09-30T21:26:24.943Z,24.23
2022-09-30T21:28:52.225Z,24.27
2022-09-30T21:31:23.136Z,26.42
2022-09-30T21:33:55.526Z,25.38
2022-09-30T21:36:23.146Z,23.08
2022-09-30T21:38:51.089Z,28.45
2022-09-30T21:41:19.758Z,24.50
2022-09-30T21:43:47.596Z,22.55
2022-09-30T21:46:16.092Z,23.60
2022-09-30T21:48:43.393Z,18.60
2022-09-30T21:51:10.645Z,25.67
2022-09-30T21:53:39.086Z,19.25
2022-09-30T21:56:07.704Z,22.55
2022-09-30T21:58:34.668Z,22.20
2022-09-30T22:01:04.642Z,22.83
2022-09-30T22:03:37.419Z,20.00
2022-09-30T22:06:07.934Z,19.10
2022-09-30T22:08:40.733Z,20.25
2022-09-30T22:11:22.731Z,19.88
2022-09-30T22:13:53.271Z,20.02
2022-09-30T22:16:21.249Z,18.17
2022-09-30T22:18:48.211Z,21.52
2022-09-30T22:21:15.552Z,18.38
2022-09-30T22:23:43.434Z,19.80
2022-09-30T22:26:14.108Z,20.15
2022-09-30T22:28:41.442Z,23.55
2022-09-30T22:31:20.053Z,19.63
2022-09-30T22:34:11.597Z,17.63
2022-09-30T22:36:57.126Z,18.10
2022-09-30T22:39:24.805Z,17.15
2022-09-30T22:41:54.062Z,18.83
2022-09-30T22:44:26.301Z,19.83
2022-09-30T22:46:53.912Z,17.95
2022-09-30T22:49:21.680Z,17.92
2022-09-30T22:51:56.119Z,16.33
2022-09-30T22:54:24.494Z,17.85
2022-09-30T22:56:51.970Z,19.23
2022-09-30T22:59:19.670Z,17.33
2022-09-30T23:01:47.021Z,21.92
2022-09-30T23:04:17.390Z,17.33
2022-09-30T23:06:49.571Z,17.08
2022-09-30T23:09:17.703Z,15.85
2022-09-30T23:11:46.133Z,20.90
2022-09-30T23:14:13.499Z,18.67
2022-09-30T23:16:41.047Z,16.63
2022-09-30T23:19:08.086Z,17.20
2022-09-30T23:21:36.043Z,19.45
2022-09-30T23:24:03.722Z,18.45
2022-09-30T23:26:31.270Z,19.27
2022-09-30T23:29:04.038Z,19.27
2022-09-30T23:31:32.389Z,19.88
2022-09-30T23:34:02.142Z,22.35
2022-09-30T23:36:31.793Z,21.83
2022-09-30T23:39:12.566Z,22.38
2022-09-30T23:41:40.023Z,20.05
2022-09-30T23:44:09.278Z,18.00
2022-09-30T23:46:36.241Z,23.27
2022-09-30T23:49:03.214Z,25.35
2022-09-30T23:51:30.831Z,22.45
2022-09-30T23:53:57.876Z,21.77
2022-09-30T23:56:25.226Z,21.33
2022-09-30T23:58:52.288Z,22.52
